sensor_id;sensor_type;location;lat;lon;timestamp;temperature;humidity
25732;DHT22;13585;50.864;4.406;2022-12-24T00:02:23;16.70;72.90
25732;DHT22;13585;50.864;4.406;2022-12-24T00:04:49;16.80;73.00
25732;DHT22;13585;50.864;4.406;2022-12-24T00:07:17;16.80;72.90
25732;DHT22;13585;50.864;4.406;2022-12-24T00:09:49;16.70;72.90
25732;DHT22;13585;50.864;4.406;2022-12-24T00:12:15;16.70;72.90
25732;DHT22;13585;50.864;4.406;2022-12-24T00:14:59;16.70;72.80
25732;DHT22;13585;50.864;4.406;2022-12-24T00:17:24;16.80;72.90
25732;DHT22;13585;50.864;4.406;2022-12-24T00:19:56;16.70;72.80
25732;DHT22;13585;50.864;4.406;2022-12-24T00:22:40;16.80;72.90
25732;DHT22;13585;50.864;4.406;2022-12-24T00:25:11;16.70;72.90
25732;DHT22;13585;50.864;4.406;2022-12-24T00:27:37;16.80;72.80
25732;DHT22;13585;50.864;4.406;2022-12-24T00:30:06;16.80;72.80
25732;DHT22;13585;50.864;4.406;2022-12-24T00:32:37;16.70;72.70
25732;DHT22;13585;50.864;4.406;2022-12-24T00:35:03;16.70;72.70
25732;DHT22;13585;50.864;4.406;2022-12-24T00:37:40;16.80;72.80
25732;DHT22;13585;50.864;4.406;2022-12-24T00:47:13;16.80;72.70
25732;DHT22;13585;50.864;4.406;2022-12-24T00:52:23;16.80;72.50
25732;DHT22;13585;50.864;4.406;2022-12-24T00:55:28;16.70;72.60
25732;DHT22;13585;50.864;4.406;2022-12-24T00:58:02;16.80;72.60
25732;DHT22;13585;50.864;4.406;2022-12-24T01:00:28;16.70;72.60
25732;DHT22;13585;50.864;4.406;2022-12-24T01:02:54;16.70;73.40
25732;DHT22;13585;50.864;4.406;2022-12-24T01:08:38;16.70;72.50
25732;DHT22;13585;50.864;4.406;2022-12-24T01:11:04;16.70;72.50
25732;DHT22;13585;50.864;4.406;2022-12-24T01:13:36;16.70;72.40
25732;DHT22;13585;50.864;4.406;2022-12-24T01:16:20;16.70;72.40
25732;DHT22;13585;50.864;4.406;2022-12-24T01:18:45;16.70;72.50
25732;DHT22;13585;50.864;4.406;2022-12-24T01:21:11;16.80;72.40
25732;DHT22;13585;50.864;4.406;2022-12-24T01:23:43;16.80;72.40
25732;DHT22;13585;50.864;4.406;2022-12-24T01:26:09;16.70;72.40
25732;DHT22;13585;50.864;4.406;2022-12-24T01:28:38;16.70;72.30
25732;DHT22;13585;50.864;4.406;2022-12-24T01:31:15;16.80;72.20
25732;DHT22;13585;50.864;4.406;2022-12-24T01:33:42;16.70;72.30
25732;DHT22;13585;50.864;4.406;2022-12-24T01:36:08;16.70;72.20
25732;DHT22;13585;50.864;4.406;2022-12-24T01:38:34;16.70;72.30
25732;DHT22;13585;50.864;4.406;2022-12-24T01:41:00;16.70;72.20
25732;DHT22;13585;50.864;4.406;2022-12-24T01:43:44;16.70;72.20
25732;DHT22;13585;50.864;4.406;2022-12-24T01:46:19;16.70;72.20
25732;DHT22;13585;50.864;4.406;2022-12-24T01:52:17;16.70;72.20
25732;DHT22;13585;50.864;4.406;2022-12-24T01:54:51;16.70;72.10
25732;DHT22;13585;50.864;4.406;2022-12-24T01:57:33;16.70;72.10
25732;DHT22;13585;50.864;4.406;2022-12-24T02:00:04;16.70;72.10
25732;DHT22;13585;50.864;4.406;2022-12-24T02:02:31;16.70;72.00
25732;DHT22;13585;50.864;4.406;2022-12-24T02:07:28;16.70;72.00
25732;DHT22;13585;50.864;4.406;2022-12-24T02:09:57;16.70;72.00
25732;DHT22;13585;50.864;4.406;2022-12-24T02:12:24;16.70;72.00
25732;DHT22;13585;50.864;4.406;2022-12-24T02:14:54;16.70;72.00
25732;DHT22;13585;50.864;4.406;2022-12-24T02:28:59;16.70;71.90
25732;DHT22;13585;50.864;4.406;2022-12-24T02:32:11;16.70;72.00
25732;DHT22;13585;50.864;4.406;2022-12-24T02:37:29;16.70;71.80
25732;DHT22;13585;50.864;4.406;2022-12-24T02:39:58;16.70;71.80
25732;DHT22;13585;50.864;4.406;2022-12-24T02:42:41;16.70;71.80
25732;DHT22;13585;50.864;4.406;2022-12-24T02:45:15;16.60;71.80
25732;DHT22;13585;50.864;4.406;2022-12-24T02:47:43;16.70;71.70
25732;DHT22;13585;50.864;4.406;2022-12-24T02:50:15;16.70;71.70
25732;DHT22;13585;50.864;4.406;2022-12-24T02:52:43;16.60;71.70
25732;DHT22;13585;50.864;4.406;2022-12-24T03:11:37;16.70;71.50
25732;DHT22;13585;50.864;4.406;2022-12-24T03:14:04;16.70;71.50
25732;DHT22;13585;50.864;4.406;2022-12-24T03:16:34;16.70;71.60
25732;DHT22;13585;50.864;4.406;2022-12-24T03:19:00;16.70;71.60
25732;DHT22;13585;50.864;4.406;2022-12-24T03:21:37;16.70;71.60
25732;DHT22;13585;50.864;4.406;2022-12-24T03:24:16;16.60;71.60
25732;DHT22;13585;50.864;4.406;2022-12-24T03:26:45;16.60;71.60
25732;DHT22;13585;50.864;4.406;2022-12-24T03:29:11;16.70;71.50
25732;DHT22;13585;50.864;4.406;2022-12-24T03:31:47;16.70;71.50
25732;DHT22;13585;50.864;4.406;2022-12-24T03:34:14;16.60;71.50
25732;DHT22;13585;50.864;4.406;2022-12-24T03:36:40;16.70;71.50
25732;DHT22;13585;50.864;4.406;2022-12-24T03:39:06;16.70;71.50
25732;DHT22;13585;50.864;4.406;2022-12-24T03:41:32;16.70;71.40
25732;DHT22;13585;50.864;4.406;2022-12-24T03:43:58;16.70;71.40
25732;DHT22;13585;50.864;4.406;2022-12-24T03:46:47;16.70;71.40
25732;DHT22;13585;50.864;4.406;2022-12-24T03:52:14;16.70;71.30
25732;DHT22;13585;50.864;4.406;2022-12-24T03:54:42;16.60;71.40
25732;DHT22;13585;50.864;4.406;2022-12-24T03:57:20;16.70;71.20
25732;DHT22;13585;50.864;4.406;2022-12-24T03:59:47;16.60;71.30
25732;DHT22;13585;50.864;4.406;2022-12-24T04:02:16;16.70;71.30
25732;DHT22;13585;50.864;4.406;2022-12-24T04:04:41;16.60;71.20
25732;DHT22;13585;50.864;4.406;2022-12-24T04:07:22;16.60;71.20
25732;DHT22;13585;50.864;4.406;2022-12-24T04:09:56;16.60;71.20
25732;DHT22;13585;50.864;4.406;2022-12-24T04:12:22;16.60;71.20
25732;DHT22;13585;50.864;4.406;2022-12-24T04:14:48;16.70;71.20
25732;DHT22;13585;50.864;4.406;2022-12-24T04:17:23;16.70;71.20
25732;DHT22;13585;50.864;4.406;2022-12-24T04:19:52;16.60;71.10
25732;DHT22;13585;50.864;4.406;2022-12-24T04:22:26;16.60;71.10
25732;DHT22;13585;50.864;4.406;2022-12-24T04:24:52;16.60;71.80
25732;DHT22;13585;50.864;4.406;2022-12-24T04:27:26;16.60;71.00
25732;DHT22;13585;50.864;4.406;2022-12-24T04:29:52;16.60;71.10
25732;DHT22;13585;50.864;4.406;2022-12-24T04:32:17;16.70;71.00
25732;DHT22;13585;50.864;4.406;2022-12-24T04:34:55;16.70;71.00
25732;DHT22;13585;50.864;4.406;2022-12-24T04:37:21;16.60;71.00
25732;DHT22;13585;50.864;4.406;2022-12-24T04:39:46;16.70;71.00
25732;DHT22;13585;50.864;4.406;2022-12-24T04:42:12;16.60;71.00
25732;DHT22;13585;50.864;4.406;2022-12-24T04:44:38;16.70;71.10
25732;DHT22;13585;50.864;4.406;2022-12-24T04:47:03;16.60;70.90
25732;DHT22;13585;50.864;4.406;2022-12-24T04:49:29;16.60;70.90
25732;DHT22;13585;50.864;4.406;2022-12-24T04:51:55;16.70;71.00
25732;DHT22;13585;50.864;4.406;2022-12-24T04:54:23;16.60;70.90
25732;DHT22;13585;50.864;4.406;2022-12-24T04:56:49;16.60;70.80
25732;DHT22;13585;50.864;4.406;2022-12-24T04:59:14;16.60;70.80
25732;DHT22;13585;50.864;4.406;2022-12-24T05:01:40;16.70;70.90
25732;DHT22;13585;50.864;4.406;2022-12-24T05:04:05;16.60;70.80
25732;DHT22;13585;50.864;4.406;2022-12-24T05:06:32;16.60;70.80
25732;DHT22;13585;50.864;4.406;2022-12-24T05:08:58;16.60;70.80
25732;DHT22;13585;50.864;4.406;2022-12-24T05:11:24;16.60;70.70
25732;DHT22;13585;50.864;4.406;2022-12-24T05:13:51;16.60;70.70
25732;DHT22;13585;50.864;4.406;2022-12-24T05:16:17;16.60;70.70
25732;DHT22;13585;50.864;4.406;2022-12-24T05:18:43;16.60;70.70
25732;DHT22;13585;50.864;4.406;2022-12-24T05:21:12;16.60;70.70
25732;DHT22;13585;50.864;4.406;2022-12-24T05:23:38;16.60;70.70
25732;DHT22;13585;50.864;4.406;2022-12-24T05:26:35;16.60;70.70
25732;DHT22;13585;50.864;4.406;2022-12-24T05:29:02;16.60;70.70
25732;DHT22;13585;50.864;4.406;2022-12-24T05:31:30;16.60;70.70
25732;DHT22;13585;50.864;4.406;2022-12-24T05:33:55;16.60;71.40
25732;DHT22;13585;50.864;4.406;2022-12-24T05:36:22;16.60;70.70
25732;DHT22;13585;50.864;4.406;2022-12-24T05:38:48;16.60;70.60
25732;DHT22;13585;50.864;4.406;2022-12-24T05:41:14;16.60;70.60
25732;DHT22;13585;50.864;4.406;2022-12-24T05:43:40;16.60;70.60
25732;DHT22;13585;50.864;4.406;2022-12-24T05:46:08;16.60;70.60
25732;DHT22;13585;50.864;4.406;2022-12-24T05:48:34;16.60;70.60
25732;DHT22;13585;50.864;4.406;2022-12-24T05:51:10;16.60;70.60
25732;DHT22;13585;50.864;4.406;2022-12-24T05:53:36;16.60;70.50
25732;DHT22;13585;50.864;4.406;2022-12-24T05:56:06;16.60;70.50
25732;DHT22;13585;50.864;4.406;2022-12-24T05:58:32;16.60;70.50
25732;DHT22;13585;50.864;4.406;2022-12-24T06:01:00;16.60;70.50
25732;DHT22;13585;50.864;4.406;2022-12-24T06:03:26;16.60;70.50
25732;DHT22;13585;50.864;4.406;2022-12-24T06:06:22;16.60;70.50
25732;DHT22;13585;50.864;4.406;2022-12-24T06:08:49;16.60;70.50
25732;DHT22;13585;50.864;4.406;2022-12-24T06:11:17;16.60;70.40
25732;DHT22;13585;50.864;4.406;2022-12-24T06:13:48;16.60;70.40
25732;DHT22;13585;50.864;4.406;2022-12-24T06:16:24;16.60;70.40
25732;DHT22;13585;50.864;4.406;2022-12-24T06:18:58;16.60;70.40
25732;DHT22;13585;50.864;4.406;2022-12-24T06:21:24;16.60;70.40
25732;DHT22;13585;50.864;4.406;2022-12-24T06:23:59;16.60;70.40
25732;DHT22;13585;50.864;4.406;2022-12-24T06:26:24;16.60;70.40
25732;DHT22;13585;50.864;4.406;2022-12-24T06:28:50;16.60;70.40
25732;DHT22;13585;50.864;4.406;2022-12-24T06:31:18;16.60;70.40
25732;DHT22;13585;50.864;4.406;2022-12-24T06:33:44;16.60;70.30
25732;DHT22;13585;50.864;4.406;2022-12-24T06:36:14;16.60;70.30
25732;DHT22;13585;50.864;4.406;2022-12-24T06:38:41;16.60;70.30
25732;DHT22;13585;50.864;4.406;2022-12-24T06:41:07;16.60;70.30
25732;DHT22;13585;50.864;4.406;2022-12-24T06:43:33;16.60;70.20
25732;DHT22;13585;50.864;4.406;2022-12-24T06:46:00;16.60;70.30
25732;DHT22;13585;50.864;4.406;2022-12-24T06:48:38;16.60;70.20
25732;DHT22;13585;50.864;4.406;2022-12-24T06:51:06;16.60;70.30
25732;DHT22;13585;50.864;4.406;2022-12-24T06:53:32;16.60;70.20
25732;DHT22;13585;50.864;4.406;2022-12-24T06:56:09;16.60;70.20
25732;DHT22;13585;50.864;4.406;2022-12-24T06:58:35;16.60;70.20
25732;DHT22;13585;50.864;4.406;2022-12-24T07:01:02;16.60;70.20
25732;DHT22;13585;50.864;4.406;2022-12-24T07:03:31;16.60;70.20
25732;DHT22;13585;50.864;4.406;2022-12-24T07:06:03;16.60;70.20
25732;DHT22;13585;50.864;4.406;2022-12-24T07:08:31;16.60;70.20
25732;DHT22;13585;50.864;4.406;2022-12-24T07:11:00;16.60;70.20
25732;DHT22;13585;50.864;4.406;2022-12-24T07:13:26;16.60;70.10
25732;DHT22;13585;50.864;4.406;2022-12-24T07:16:04;16.60;70.00
25732;DHT22;13585;50.864;4.406;2022-12-24T07:18:30;16.60;70.10
25732;DHT22;13585;50.864;4.406;2022-12-24T07:21:04;16.60;70.10
25732;DHT22;13585;50.864;4.406;2022-12-24T07:23:31;16.60;70.10
25732;DHT22;13585;50.864;4.406;2022-12-24T07:26:02;16.60;70.20
25732;DHT22;13585;50.864;4.406;2022-12-24T07:28:47;16.60;70.20
25732;DHT22;13585;50.864;4.406;2022-12-24T07:31:20;16.60;70.10
25732;DHT22;13585;50.864;4.406;2022-12-24T07:33:49;16.60;70.20
25732;DHT22;13585;50.864;4.406;2022-12-24T07:36:27;16.60;70.10
25732;DHT22;13585;50.864;4.406;2022-12-24T07:38:53;16.60;70.20
25732;DHT22;13585;50.864;4.406;2022-12-24T07:41:25;16.60;70.10
25732;DHT22;13585;50.864;4.406;2022-12-24T07:46:34;16.60;70.10
25732;DHT22;13585;50.864;4.406;2022-12-24T07:49:35;16.60;70.10
25732;DHT22;13585;50.864;4.406;2022-12-24T07:52:04;16.60;70.20
25732;DHT22;13585;50.864;4.406;2022-12-24T07:54:29;16.60;70.10
25732;DHT22;13585;50.864;4.406;2022-12-24T07:57:12;16.70;70.20
25732;DHT22;13585;50.864;4.406;2022-12-24T07:59:40;16.60;70.20
25732;DHT22;13585;50.864;4.406;2022-12-24T08:02:29;16.60;70.20
25732;DHT22;13585;50.864;4.406;2022-12-24T08:04:58;16.60;70.20
25732;DHT22;13585;50.864;4.406;2022-12-24T08:07:29;16.60;70.10
25732;DHT22;13585;50.864;4.406;2022-12-24T08:09:55;16.60;70.20
25732;DHT22;13585;50.864;4.406;2022-12-24T08:12:29;16.60;70.10
25732;DHT22;13585;50.864;4.406;2022-12-24T08:14:58;16.60;70.20
25732;DHT22;13585;50.864;4.406;2022-12-24T08:17:33;16.60;70.10
25732;DHT22;13585;50.864;4.406;2022-12-24T08:19:58;16.60;70.10
25732;DHT22;13585;50.864;4.406;2022-12-24T08:22:24;16.60;70.10
25732;DHT22;13585;50.864;4.406;2022-12-24T08:31:21;16.60;70.20
25732;DHT22;13585;50.864;4.406;2022-12-24T08:33:47;16.60;70.00
25732;DHT22;13585;50.864;4.406;2022-12-24T08:41:56;16.60;70.20
25732;DHT22;13585;50.864;4.406;2022-12-24T08:44:37;16.60;70.20
25732;DHT22;13585;50.864;4.406;2022-12-24T08:47:08;16.60;70.20
25732;DHT22;13585;50.864;4.406;2022-12-24T08:49:34;16.60;70.30
25732;DHT22;13585;50.864;4.406;2022-12-24T08:51:59;16.60;70.20
25732;DHT22;13585;50.864;4.406;2022-12-24T08:54:31;16.60;70.20
25732;DHT22;13585;50.864;4.406;2022-12-24T08:56:57;16.60;70.20
25732;DHT22;13585;50.864;4.406;2022-12-24T08:59:37;16.60;70.20
25732;DHT22;13585;50.864;4.406;2022-12-24T09:02:03;16.60;70.20
25732;DHT22;13585;50.864;4.406;2022-12-24T09:04:28;16.60;70.20
25732;DHT22;13585;50.864;4.406;2022-12-24T09:06:54;16.60;70.20
25732;DHT22;13585;50.864;4.406;2022-12-24T09:09:19;16.60;70.20
25732;DHT22;13585;50.864;4.406;2022-12-24T09:11:45;16.60;70.20
25732;DHT22;13585;50.864;4.406;2022-12-24T09:14:11;16.60;70.20
25732;DHT22;13585;50.864;4.406;2022-12-24T09:16:36;16.60;70.20
25732;DHT22;13585;50.864;4.406;2022-12-24T09:19:02;16.60;70.20
25732;DHT22;13585;50.864;4.406;2022-12-24T09:21:28;16.60;70.20
25732;DHT22;13585;50.864;4.406;2022-12-24T09:23:57;16.60;70.20
25732;DHT22;13585;50.864;4.406;2022-12-24T09:26:26;16.60;70.20
25732;DHT22;13585;50.864;4.406;2022-12-24T09:28:56;16.60;70.20
25732;DHT22;13585;50.864;4.406;2022-12-24T09:31:22;16.60;70.20
25732;DHT22;13585;50.864;4.406;2022-12-24T09:33:49;16.60;70.20
25732;DHT22;13585;50.864;4.406;2022-12-24T09:36:15;16.60;70.20
25732;DHT22;13585;50.864;4.406;2022-12-24T09:38:42;16.60;70.20
25732;DHT22;13585;50.864;4.406;2022-12-24T09:44:46;16.70;70.40
25732;DHT22;13585;50.864;4.406;2022-12-24T09:47:21;16.60;70.20
25732;DHT22;13585;50.864;4.406;2022-12-24T09:49:55;16.60;70.20
25732;DHT22;13585;50.864;4.406;2022-12-24T09:52:28;16.60;70.20
25732;DHT22;13585;50.864;4.406;2022-12-24T09:55:04;16.60;70.20
25732;DHT22;13585;50.864;4.406;2022-12-24T09:57:37;16.60;70.20
25732;DHT22;13585;50.864;4.406;2022-12-24T10:00:28;16.60;70.20
25732;DHT22;13585;50.864;4.406;2022-12-24T10:02:54;16.60;70.20
25732;DHT22;13585;50.864;4.406;2022-12-24T10:05:40;16.70;70.20
25732;DHT22;13585;50.864;4.406;2022-12-24T10:10:52;16.60;70.20
25732;DHT22;13585;50.864;4.406;2022-12-24T10:16:07;16.60;70.40
25732;DHT22;13585;50.864;4.406;2022-12-24T10:21:47;16.60;70.40
25732;DHT22;13585;50.864;4.406;2022-12-24T10:24:23;16.60;70.40
25732;DHT22;13585;50.864;4.406;2022-12-24T10:27:12;16.60;70.30
25732;DHT22;13585;50.864;4.406;2022-12-24T10:29:51;16.60;70.40
25732;DHT22;13585;50.864;4.406;2022-12-24T10:32:27;16.60;70.40
25732;DHT22;13585;50.864;4.406;2022-12-24T10:34:59;16.60;70.40
25732;DHT22;13585;50.864;4.406;2022-12-24T10:37:38;16.60;70.40
25732;DHT22;13585;50.864;4.406;2022-12-24T10:40:04;16.60;70.50
25732;DHT22;13585;50.864;4.406;2022-12-24T10:42:37;16.60;70.40
25732;DHT22;13585;50.864;4.406;2022-12-24T10:45:06;16.60;70.40
25732;DHT22;13585;50.864;4.406;2022-12-24T10:47:36;16.70;70.50
25732;DHT22;13585;50.864;4.406;2022-12-24T10:50:14;16.60;70.50
25732;DHT22;13585;50.864;4.406;2022-12-24T10:52:43;16.60;70.50
25732;DHT22;13585;50.864;4.406;2022-12-24T10:55:21;16.70;70.50
25732;DHT22;13585;50.864;4.406;2022-12-24T10:58:00;16.60;70.40
25732;DHT22;13585;50.864;4.406;2022-12-24T11:00:28;16.60;70.50
25732;DHT22;13585;50.864;4.406;2022-12-24T11:03:23;16.60;70.40
25732;DHT22;13585;50.864;4.406;2022-12-24T11:08:28;16.60;70.40
25732;DHT22;13585;50.864;4.406;2022-12-24T11:10:57;16.60;70.40
25732;DHT22;13585;50.864;4.406;2022-12-24T11:13:40;16.70;70.50
25732;DHT22;13585;50.864;4.406;2022-12-24T11:16:29;16.60;70.40
25732;DHT22;13585;50.864;4.406;2022-12-24T11:18:58;16.60;70.50
25732;DHT22;13585;50.864;4.406;2022-12-24T11:21:31;16.70;70.50
25732;DHT22;13585;50.864;4.406;2022-12-24T11:26:37;16.60;70.50
25732;DHT22;13585;50.864;4.406;2022-12-24T11:31:30;16.60;70.50
25732;DHT22;13585;50.864;4.406;2022-12-24T11:34:00;16.60;70.50
25732;DHT22;13585;50.864;4.406;2022-12-24T11:36:25;16.70;70.50
25732;DHT22;13585;50.864;4.406;2022-12-24T11:38:56;16.60;70.40
25732;DHT22;13585;50.864;4.406;2022-12-24T11:41:23;16.60;70.50
25732;DHT22;13585;50.864;4.406;2022-12-24T11:44:00;16.70;70.50
25732;DHT22;13585;50.864;4.406;2022-12-24T11:46:42;16.60;70.50
25732;DHT22;13585;50.864;4.406;2022-12-24T11:49:29;16.60;70.50
25732;DHT22;13585;50.864;4.406;2022-12-24T11:52:17;16.60;70.40
25732;DHT22;13585;50.864;4.406;2022-12-24T11:57:50;16.70;70.40
25732;DHT22;13585;50.864;4.406;2022-12-24T12:00:17;16.70;70.50
25732;DHT22;13585;50.864;4.406;2022-12-24T12:02:45;16.70;70.50
25732;DHT22;13585;50.864;4.406;2022-12-24T12:05:17;16.60;70.50
25732;DHT22;13585;50.864;4.406;2022-12-24T12:07:47;16.70;70.60
25732;DHT22;13585;50.864;4.406;2022-12-24T12:10:21;16.70;70.60
25732;DHT22;13585;50.864;4.406;2022-12-24T12:13:02;16.70;71.50
25732;DHT22;13585;50.864;4.406;2022-12-24T12:15:34;16.70;70.80
25732;DHT22;13585;50.864;4.406;2022-12-24T12:18:22;16.70;70.80
25732;DHT22;13585;50.864;4.406;2022-12-24T12:20:59;16.70;70.80
25732;DHT22;13585;50.864;4.406;2022-12-24T12:23:50;16.70;70.80
25732;DHT22;13585;50.864;4.406;2022-12-24T12:26:27;16.70;70.90
25732;DHT22;13585;50.864;4.406;2022-12-24T12:29:26;16.70;71.00
25732;DHT22;13585;50.864;4.406;2022-12-24T12:32:15;16.70;71.20
25732;DHT22;13585;50.864;4.406;2022-12-24T12:35:03;16.70;71.20
25732;DHT22;13585;50.864;4.406;2022-12-24T12:37:37;16.70;71.20
25732;DHT22;13585;50.864;4.406;2022-12-24T12:40:17;16.70;71.20
25732;DHT22;13585;50.864;4.406;2022-12-24T12:43:15;16.70;71.30
25732;DHT22;13585;50.864;4.406;2022-12-24T12:51:14;16.70;71.60
25732;DHT22;13585;50.864;4.406;2022-12-24T12:56:48;16.70;71.90
25732;DHT22;13585;50.864;4.406;2022-12-24T13:10:46;16.80;72.40
25732;DHT22;13585;50.864;4.406;2022-12-24T13:18:38;16.80;72.80
25732;DHT22;13585;50.864;4.406;2022-12-24T13:21:20;16.70;72.90
25732;DHT22;13585;50.864;4.406;2022-12-24T13:23:47;16.70;73.00
25732;DHT22;13585;50.864;4.406;2022-12-24T13:26:13;16.70;72.90
25732;DHT22;13585;50.864;4.406;2022-12-24T13:28:45;16.80;73.10
25732;DHT22;13585;50.864;4.406;2022-12-24T13:31:22;16.70;73.10
25732;DHT22;13585;50.864;4.406;2022-12-24T13:33:56;16.80;73.30
25732;DHT22;13585;50.864;4.406;2022-12-24T13:37:01;16.80;73.20
25732;DHT22;13585;50.864;4.406;2022-12-24T13:39:28;16.70;73.20
25732;DHT22;13585;50.864;4.406;2022-12-24T13:47:57;16.80;73.50
25732;DHT22;13585;50.864;4.406;2022-12-24T13:50:46;16.80;73.40
25732;DHT22;13585;50.864;4.406;2022-12-24T13:55:58;16.80;73.50
25732;DHT22;13585;50.864;4.406;2022-12-24T13:58:42;16.80;73.50
25732;DHT22;13585;50.864;4.406;2022-12-24T14:01:18;16.80;73.50
25732;DHT22;13585;50.864;4.406;2022-12-24T14:03:51;16.80;73.20
25732;DHT22;13585;50.864;4.406;2022-12-24T14:06:32;16.80;73.40
25732;DHT22;13585;50.864;4.406;2022-12-24T14:09:17;16.80;73.60
25732;DHT22;13585;50.864;4.406;2022-12-24T14:14:40;16.80;73.70
25732;DHT22;13585;50.864;4.406;2022-12-24T14:17:22;16.80;73.90
25732;DHT22;13585;50.864;4.406;2022-12-24T14:19:57;16.80;73.70
25732;DHT22;13585;50.864;4.406;2022-12-24T14:22:45;16.80;73.70
25732;DHT22;13585;50.864;4.406;2022-12-24T14:25:21;16.80;73.70
25732;DHT22;13585;50.864;4.406;2022-12-24T14:27:55;16.80;73.70
25732;DHT22;13585;50.864;4.406;2022-12-24T14:30:27;16.80;73.70
25732;DHT22;13585;50.864;4.406;2022-12-24T14:32:53;16.80;73.80
25732;DHT22;13585;50.864;4.406;2022-12-24T14:35:28;16.80;73.80
25732;DHT22;13585;50.864;4.406;2022-12-24T14:38:02;16.80;74.10
25732;DHT22;13585;50.864;4.406;2022-12-24T14:40:30;16.80;74.10
25732;DHT22;13585;50.864;4.406;2022-12-24T14:46:04;16.80;74.40
25732;DHT22;13585;50.864;4.406;2022-12-24T14:48:41;16.80;74.40
25732;DHT22;13585;50.864;4.406;2022-12-24T14:51:42;16.80;74.40
25732;DHT22;13585;50.864;4.406;2022-12-24T14:54:21;16.80;74.50
25732;DHT22;13585;50.864;4.406;2022-12-24T14:59:57;16.80;74.70
25732;DHT22;13585;50.864;4.406;2022-12-24T15:05:12;16.80;74.50
25732;DHT22;13585;50.864;4.406;2022-12-24T15:10:25;16.80;74.70
25732;DHT22;13585;50.864;4.406;2022-12-24T15:12:52;16.80;74.80
25732;DHT22;13585;50.864;4.406;2022-12-24T15:15:28;16.80;74.80
25732;DHT22;13585;50.864;4.406;2022-12-24T15:17:56;16.80;75.00
25732;DHT22;13585;50.864;4.406;2022-12-24T15:20:25;16.80;75.10
25732;DHT22;13585;50.864;4.406;2022-12-24T15:22:54;16.80;75.00
25732;DHT22;13585;50.864;4.406;2022-12-24T15:25:32;16.80;75.10
25732;DHT22;13585;50.864;4.406;2022-12-24T15:27:58;16.80;75.10
25732;DHT22;13585;50.864;4.406;2022-12-24T15:30:27;16.90;75.20
25732;DHT22;13585;50.864;4.406;2022-12-24T15:32:54;16.80;75.40
25732;DHT22;13585;50.864;4.406;2022-12-24T15:37:57;16.80;75.40
25732;DHT22;13585;50.864;4.406;2022-12-24T15:40:24;16.80;75.40
25732;DHT22;13585;50.864;4.406;2022-12-24T15:42:51;16.80;75.40
25732;DHT22;13585;50.864;4.406;2022-12-24T15:45:23;16.80;75.30
25732;DHT22;13585;50.864;4.406;2022-12-24T15:48:05;16.90;75.40
25732;DHT22;13585;50.864;4.406;2022-12-24T15:50:43;16.80;75.40
25732;DHT22;13585;50.864;4.406;2022-12-24T15:53:15;16.80;75.40
25732;DHT22;13585;50.864;4.406;2022-12-24T15:55:58;16.80;75.40
25732;DHT22;13585;50.864;4.406;2022-12-24T15:58:30;16.80;75.50
25732;DHT22;13585;50.864;4.406;2022-12-24T16:03:35;16.80;75.70
25732;DHT22;13585;50.864;4.406;2022-12-24T16:06:10;16.80;75.60
25732;DHT22;13585;50.864;4.406;2022-12-24T16:08:39;16.80;75.60
25732;DHT22;13585;50.864;4.406;2022-12-24T16:13:42;16.80;75.60
25732;DHT22;13585;50.864;4.406;2022-12-24T16:16:11;16.80;75.80
25732;DHT22;13585;50.864;4.406;2022-12-24T16:18:54;16.80;75.70
25732;DHT22;13585;50.864;4.406;2022-12-24T16:24:27;16.80;75.80
25732;DHT22;13585;50.864;4.406;2022-12-24T16:26:59;16.80;75.60
25732;DHT22;13585;50.864;4.406;2022-12-24T16:29:25;16.80;75.60
25732;DHT22;13585;50.864;4.406;2022-12-24T16:31:54;16.80;75.60
25732;DHT22;13585;50.864;4.406;2022-12-24T16:34:26;16.80;75.60
25732;DHT22;13585;50.864;4.406;2022-12-24T16:36:53;16.80;75.70
25732;DHT22;13585;50.864;4.406;2022-12-24T16:39:28;16.90;75.80
25732;DHT22;13585;50.864;4.406;2022-12-24T16:41:57;16.80;75.80
25732;DHT22;13585;50.864;4.406;2022-12-24T16:44:41;16.90;75.90
25732;DHT22;13585;50.864;4.406;2022-12-24T16:47:12;16.80;75.70
25732;DHT22;13585;50.864;4.406;2022-12-24T16:49:39;16.80;75.90
25732;DHT22;13585;50.864;4.406;2022-12-24T16:52:06;16.80;75.80
25732;DHT22;13585;50.864;4.406;2022-12-24T16:54:32;16.80;75.70
25732;DHT22;13585;50.864;4.406;2022-12-24T16:57:08;16.80;75.80
25732;DHT22;13585;50.864;4.406;2022-12-24T16:59:36;16.80;75.80
25732;DHT22;13585;50.864;4.406;2022-12-24T17:02:02;16.90;76.00
25732;DHT22;13585;50.864;4.406;2022-12-24T17:04:30;16.80;75.80
25732;DHT22;13585;50.864;4.406;2022-12-24T17:06:56;16.80;75.90
25732;DHT22;13585;50.864;4.406;2022-12-24T17:09:22;16.80;76.00
25732;DHT22;13585;50.864;4.406;2022-12-24T17:11:47;16.80;76.00
25732;DHT22;13585;50.864;4.406;2022-12-24T17:14:13;16.80;76.00
25732;DHT22;13585;50.864;4.406;2022-12-24T17:16:38;16.80;76.10
25732;DHT22;13585;50.864;4.406;2022-12-24T17:19:04;16.80;76.00
25732;DHT22;13585;50.864;4.406;2022-12-24T17:21:30;16.80;76.00
25732;DHT22;13585;50.864;4.406;2022-12-24T17:23:56;16.80;76.10
25732;DHT22;13585;50.864;4.406;2022-12-24T17:26:22;16.80;76.10
25732;DHT22;13585;50.864;4.406;2022-12-24T17:28:55;16.80;76.10
25732;DHT22;13585;50.864;4.406;2022-12-24T17:31:33;16.80;76.10
25732;DHT22;13585;50.864;4.406;2022-12-24T17:33:58;16.80;76.10
25732;DHT22;13585;50.864;4.406;2022-12-24T17:36:24;16.80;76.00
25732;DHT22;13585;50.864;4.406;2022-12-24T17:38:50;16.80;76.00
25732;DHT22;13585;50.864;4.406;2022-12-24T17:41:18;16.80;76.00
25732;DHT22;13585;50.864;4.406;2022-12-24T17:43:49;16.80;76.00
25732;DHT22;13585;50.864;4.406;2022-12-24T17:46:20;16.80;76.00
25732;DHT22;13585;50.864;4.406;2022-12-24T17:48:47;16.80;76.10
25732;DHT22;13585;50.864;4.406;2022-12-24T17:51:18;16.90;76.60
25732;DHT22;13585;50.864;4.406;2022-12-24T17:53:44;16.80;76.10
25732;DHT22;13585;50.864;4.406;2022-12-24T17:56:11;16.80;76.20
25732;DHT22;13585;50.864;4.406;2022-12-24T17:58:39;16.80;77.00
25732;DHT22;13585;50.864;4.406;2022-12-24T18:01:05;16.80;76.30
25732;DHT22;13585;50.864;4.406;2022-12-24T18:03:34;16.90;76.40
25732;DHT22;13585;50.864;4.406;2022-12-24T18:09:08;16.90;76.70
25732;DHT22;13585;50.864;4.406;2022-12-24T18:11:52;16.90;76.60
25732;DHT22;13585;50.864;4.406;2022-12-24T18:14:19;16.90;76.80
25732;DHT22;13585;50.864;4.406;2022-12-24T18:16:52;16.90;76.70
25732;DHT22;13585;50.864;4.406;2022-12-24T18:19:18;16.90;76.80
25732;DHT22;13585;50.864;4.406;2022-12-24T18:21:47;16.90;76.80
25732;DHT22;13585;50.864;4.406;2022-12-24T18:24:12;16.90;77.00
25732;DHT22;13585;50.864;4.406;2022-12-24T18:26:38;16.90;77.00
25732;DHT22;13585;50.864;4.406;2022-12-24T18:29:04;16.90;77.00
25732;DHT22;13585;50.864;4.406;2022-12-24T18:31:31;16.90;77.10